Daily Summary

Last 30 Days

Daily Data | Pacific/Honolulu
as of 5/25/22 4:16 AM HST
Date Daily Max Temp (°F) Time of Max Temp Daily Min Temp (°F) Time of Min Temp Daily Rain (In) Seasonal Rainfall (In) Wind Spd (mph) Daily Max Wind (mph) Time of Max Wind Max Wind Dir (°) Daily Solar Rad (Cal/cm2) Daily ETo (in) Dew Pt (°F) Max RH (%) Min RH (%) Max Press (inHg) Time of Max Press Min Press (inHg) Time of Min Press MinBV Day (V)
5/24/22 82.2 1104 73.6 0603 0.00 9.95 7.7 28.7 1558 NNE | 28 676 0.240 65.3 76 55 30.12 0013 29.98 1713 12.8
5/23/22 83.0 1203 74.7 0425 0.00 9.95 6.6 22.2 1427 NE | 34 629 0.222 66.2 77 56 30.19 0931 30.07 1653 12.7
5/22/22 82.4 1325 75.4 2321 0.00 9.95 6.3 21.5 1444 NE | 36 517 0.194 66.8 77 58 30.20 2248 30.09 0404 12.7
5/21/22 86.0 1026 74.6 0547 0.00 9.95 5.4 22.2 1530 NNE | 23 638 0.226 69.9 91 55 30.17 2220 30.03 0327 12.7
5/20/22 83.5 1328 76.0 2357 0.15 9.95 3.6 12.4 1414 SSW | 209 457 0.150 73.4 92 71 30.11 2258 30.01 1616 12.8
5/19/22 82.8 1327 75.7 0047 0.00 9.80 3.3 14.3 1314 SW | 218 448 0.148 72.8 89 72 30.11 2221 30.01 0322 12.7
5/18/22 78.9 1158 70.5 2115 0.10 9.80 4.6 16.4 1337 SSW | 196 158 0.072 70.5 90 76 30.13 2005 30.01 0529 12.8
5/17/22 82.5 1314 68.4 0435 0.01 9.70 4.1 17.9 1144 S | 181 586 0.194 68.6 91 61 30.13 0951 30.02 1617 12.8
5/16/22 78.9 1217 69.5 0605 0.01 9.69 2.5 11.1 1013 ESE | 103 289 0.099 68.0 90 69 30.15 0951 30.05 1617 12.8
5/15/22 81.1 1021 73.2 0558 0.01 9.68 5.1 19.8 1102 NNE | 30 336 0.129 67.1 84 60 30.15 2236 30.04 0410 12.8
5/14/22 81.6 1324 73.3 0303 0.03 9.67 7.9 23.6 0805 NE | 49 686 0.246 64.9 80 49 30.13 1000 30.02 1637 12.7
5/13/22 82.1 1348 74.0 0521 0.00 9.64 8.3 27.9 1641 NE | 37 683 0.245 65.7 76 58 30.13 1001 30.02 1633 12.7
5/12/22 82.3 1222 74.5 0523 0.00 9.64 9.1 26.9 1701 ENE | 61 651 0.243 65.6 75 56 30.14 2236 30.03 1607 12.7
5/11/22 81.8 1154 73.9 0536 0.00 9.64 8.8 25.9 0001 ENE | 76 620 0.231 65.6 77 56 30.14 2302 30.02 1503 12.8
5/10/22 81.2 1249 72.6 0150 0.00 9.64 8.0 25.7 2050 ENE | 63 628 0.222 66.1 86 57 30.12 2226 29.99 1548 12.8
5/9/22 82.6 1344 73.3 2146 0.00 9.64 8.0 26.9 0902 NNE | 33 618 0.226 66.2 87 56 30.14 0006 30.00 1653 12.7
5/8/22 82.4 1318 74.8 0203 0.00 9.64 7.2 24.1 0813 NNE | 27 379 0.160 66.5 76 60 30.18 0948 30.07 1740 12.8
5/7/22 79.3 1306 74.0 0317 0.00 9.64 9.3 29.7 1608 NNE | 23 389 0.163 66.4 78 64 30.22 0838 30.08 1437 12.8
5/6/22 78.1 1428 73.6 0229 0.02 9.64 9.1 28.4 2028 NE | 44 226 0.115 66.9 84 68 30.20 2335 30.10 0518 12.8
5/5/22 79.6 1133 72.1 0610 0.00 9.62 10.1 32.6 2121 NE | 53 469 0.176 67.1 83 66 30.17 2231 30.06 1548 12.8
5/4/22 80.2 1414 72.1 0324 0.03 9.62 8.2 26.6 1233 NE | 35 569 0.194 67.0 84 63 30.18 0005 30.07 1642 12.8
5/3/22 80.6 1151 71.7 0407 0.07 9.59 9.1 32.2 1440 NNE | 27 566 0.195 66.8 86 62 30.19 1009 30.08 1622 12.8
5/2/22 78.6 1507 72.3 0021 0.22 9.52 9.1 28.8 1715 NNE | 33 430 0.151 68.2 88 72 30.20 2233 30.06 0441 12.8
5/1/22 79.8 1428 71.5 0715 0.20 9.30 11.4 32.0 1457 ENE | 60 482 0.181 66.6 87 61 30.16 2323 30.04 0203 12.8
4/30/22 79.5 1253 72.8 0136 0.18 9.10 9.4 30.0 0537 NNE | 13 429 0.163 66.5 83 63 30.15 2224 30.02 0537 12.8
4/29/22 80.9 1323 73.7 0557 0.10 8.92 7.7 25.9 2317 ESE | 107 514 0.186 66.1 79 61 30.10 2309 29.97 1527 12.8
4/28/22 82.6 1241 73.7 0130 0.00 8.82 6.8 23.5 1220 NNE | 31 663 0.233 66.0 80 56 30.06 0001 29.93 1611 12.8
4/27/22 79.3 1149 72.5 0647 0.00 8.82 6.4 21.8 1420 NNE | 27 516 0.173 67.2 84 66 30.08 0018 29.98 1643 12.8
4/26/22 80.4 1259 71.6 0346 0.04 8.82 8.5 26.2 1602 NE | 37 582 0.205 66.1 87 57 30.14 0008 29.99 1647 12.7
4/25/22 80.6 1318 74.0 0345 0.00 8.78 8.9 27.0 1615 NNE | 25 633 0.227 65.4 76 60 30.17 0858 30.02 1644 12.8
Max 86.0 - 76.0 - 0.22 9.95 11.4 32.6 - - 686 0.246 73.4 92 76 30.22 - 30.10 - 12.8
Avg - - - - - - 7.3 - - - - - 67.2 - - - - - - -
Min 78.1 - 68.4 - 0.00 8.78 2.5 11.1 - - 158 0.072 64.9 75 49 30.06 - 29.93 - 12.7